Time;durP1;ratioP1;P1;durP2;ratioP2;P2;SDS_P1;SDS_P2;PMS_P1;PMS_P2;Temp;Humidity;BMP_temperature;BMP_pressure;BME280_temperature;BME280_humidity;BME280_pressure;Samples;Min_cycle;Max_cycle;Signal;HPM_P1;HPM_P2
2021/07/01 00:02:00;;;;;;;;;;;;;;;;;;5114459;28;21590;-81
2021/07/01 00:04:26;;;;;;;;;;;;;;;;;;5114610;28;20010;-80
2021/07/01 00:06:52;;;;;;;;;;;;;;;;;;5094912;28;20331;-81
2021/07/01 00:09:18;;;;;;;;;;;;;;;;;;5112706;28;19926;-81
2021/07/01 00:11:44;;;;;;;;;;;;;;;;;;5114429;28;19962;-81
2021/07/01 00:14:10;;;;;;;;;;;;;;;;;;5114570;28;19963;-79
2021/07/01 00:16:36;;;;;;;;;;;;;;;;;;5114195;28;19914;-80
2021/07/01 00:19:02;;;;;;;;;;;;;;;;;;5116144;27;19908;-81
2021/07/01 00:21:28;;;;;;;;;;;;;;;;;;5114525;28;19908;-79
2021/07/01 00:23:53;;;;;;;;;;;;;;;;;;5114204;28;19919;-80
2021/07/01 00:26:19;;;;;;;;;;;;;;;;;;5114632;28;19910;-80
2021/07/01 00:28:45;;;;;;;;;;;;;;;;;;5114837;28;19908;-80
2021/07/01 00:31:11;;;;;;;;;;;;;;;;;;5113749;28;20273;-79
2021/07/01 00:33:37;;;;;;;;;;;;;;;;;;5114089;28;19908;-81
2021/07/01 00:36:03;;;;;;;;;;;;;;;;;;5114738;28;19911;-81
2021/07/01 00:38:29;;;;;;;;;;;;;;;;;;5114047;28;19918;-81
2021/07/01 00:40:56;;;;;;;;;;;;;;;;;;5114278;28;20269;-81
2021/07/01 00:43:22;;;;;;;;;;;;;;;;;;5113741;28;19915;-81
2021/07/01 00:45:47;;;;;;;;;;;;;;;;;;5113765;28;19911;-80
2021/07/01 00:48:13;;;;;;;;;;;;;;;;;;5113896;27;20002;-80
2021/07/01 00:50:39;;;;;;;;;;;;;;;;;;5114128;28;19908;-79
2021/07/01 00:53:05;;;;;;;;;;;;;;;;;;5093857;28;19951;-80
2021/07/01 00:55:31;;;;;;;;;;;;;;;;;;5107716;28;19923;-80
2021/07/01 00:57:57;;;;;;;;;;;;;;;;;;5113839;28;19904;-80
2021/07/01 01:02:52;;;;;;;;;;;;;;;;;;5093288;28;20338;-80
2021/07/01 01:05:17;;;;;;;;;;;;;;;;;;5111175;28;19996;-81
2021/07/01 01:07:43;;;;;;;;;;;;;;;;;;5113297;28;19908;-81
2021/07/01 01:10:09;;;;;;;;;;;;;;;;;;5112857;28;20378;-81
2021/07/01 01:12:35;;;;;;;;;;;;;;;;;;5113759;28;19903;-80
2021/07/01 01:15:01;;;;;;;;;;;;;;;;;;5113960;28;20378;-81
2021/07/01 01:17:27;;;;;;;;;;;;;;;;;;5113779;28;19911;-80
2021/07/01 01:19:53;;;;;;;;;;;;;;;;;;5122345;27;19907;-80
2021/07/01 01:22:18;;;;;;;;;;;;;;;;;;5112886;28;19994;-80
2021/07/01 01:24:44;;;;;;;;;;;;;;;;;;5113932;28;19919;-80
2021/07/01 01:27:10;;;;;;;;;;;;;;;;;;5113846;28;20713;-79
2021/07/01 01:29:36;;;;;;;;;;;;;;;;;;5114208;27;19910;-79
2021/07/01 01:32:02;;;;;;;;;;;;;;;;;;5112128;28;19908;-80
2021/07/01 01:34:28;;;;;;;;;;;;;;;;;;5113923;28;20023;-80
2021/07/01 01:36:54;;;;;;;;;;;;;;;;;;5113692;28;19908;-80
2021/07/01 01:39:19;;;;;;;;;;;;;;;;;;5113195;28;20346;-79
2021/07/01 01:41:45;;;;;;;;;;;;;;;;;;5112363;28;19999;-80
2021/07/01 01:44:11;;;;;;;;;;;;;;;;;;5113259;28;19922;-79
2021/07/01 01:46:37;;;;;;;;;;;;;;;;;;5112893;28;19959;-78
2021/07/01 01:49:03;;;;;;;;;;;;;;;;;;5118477;27;19927;-80
2021/07/01 01:51:29;;;;;;;;;;;;;;;;;;5116648;27;19954;-80
2021/07/01 01:53:55;;;;;;;;;;;;;;;;;;5120736;27;19912;-80
2021/07/01 01:56:21;;;;;;;;;;;;;;;;;;5113428;28;20060;-80
2021/07/01 01:58:47;;;;;;;;;;;;;;;;;;5113362;28;20365;-78
2021/07/01 02:01:13;;;;;;;;;;;;;;;;;;5111583;27;20521;-79
2021/07/01 02:03:39;;;;;;;;;;;;;;;;;;5112241;28;19965;-80
2021/07/01 02:06:05;;;;;;;;;;;;;;;;;;5113288;28;19908;-80
2021/07/01 02:08:32;;;;;;;;;;;;;;;;;;5113590;27;19908;-80
2021/07/01 02:10:58;;;;;;;;;;;;;;;;;;5112619;28;20056;-79
2021/07/01 02:13:24;;;;;;;;;;;;;;;;;;5111006;28;20002;-79
2021/07/01 02:15:50;;;;;;;;;;;;;;;;;;5112582;28;19918;-80
2021/07/01 02:18:16;;;;;;;;;;;;;;;;;;5112576;28;19942;-80
2021/07/01 02:20:42;;;;;;;;;;;;;;;;;;5112649;28;19904;-81
2021/07/01 02:23:07;;;;;;;;;;;;;;;;;;5110692;28;20368;-80
2021/07/01 02:25:33;;;;;;;;;;;;;;;;;;5111958;28;20400;-79
2021/07/01 02:27:59;;;;;;;;;;;;;;;;;;5112087;28;20341;-80
2021/07/01 02:30:25;;;;;;;;;;;;;;;;;;5112336;28;20191;-80
2021/07/01 02:32:51;;;;;;;;;;;;;;;;;;5120296;27;20433;-79
2021/07/01 02:35:17;;;;;;;;;;;;;;;;;;5111789;28;19910;-80
2021/07/01 02:37:43;;;;;;;;;;;;;;;;;;5111780;28;19912;-80
2021/07/01 02:40:14;;;;;;;;;;;;;;;;;;5112659;28;19910;-80
2021/07/01 02:42:40;;;;;;;;;;;;;;;;;;5110522;28;20411;-81
2021/07/01 02:45:06;;;;;;;;;;;;;;;;;;5111137;28;19916;-80
2021/07/01 02:47:32;;;;;;;;;;;;;;;;;;5111494;28;19911;-80
2021/07/01 02:49:58;;;;;;;;;;;;;;;;;;5111668;28;19904;-80
2021/07/01 02:52:24;;;;;;;;;;;;;;;;;;5111608;28;19915;-80
2021/07/01 02:54:50;;;;;;;;;;;;;;;;;;5111350;28;20283;-79
2021/07/01 02:57:16;;;;;;;;;;;;;;;;;;5110691;28;19914;-80
2021/07/01 02:59:42;;;;;;;;;;;;;;;;;;5108096;28;19904;-80
2021/07/01 03:02:08;;;;;;;;;;;;;;;;;;5114459;27;20047;-80
2021/07/01 03:04:33;;;;;;;;;;;;;;;;;;5111280;28;19920;-80
2021/07/01 03:06:59;;;;;;;;;;;;;;;;;;5110936;28;20349;-79
2021/07/01 03:09:25;;;;;;;;;;;;;;;;;;5111845;28;19914;-80
2021/07/01 03:11:51;;;;;;;;;;;;;;;;;;5110732;28;19907;-80
2021/07/01 03:14:17;;;;;;;;;;;;;;;;;;5111112;28;19911;-80
2021/07/01 03:16:43;;;;;;;;;;;;;;;;;;5111063;28;20258;-79
2021/07/01 03:19:09;;;;;;;;;;;;;;;;;;5111498;28;19918;-80
2021/07/01 03:21:35;;;;;;;;;;;;;;;;;;5110893;28;19907;-79
2021/07/01 03:24:01;;;;;;;;;;;;;;;;;;5111021;28;20312;-79
2021/07/01 03:26:27;;;;;;;;;;;;;;;;;;5111717;28;19943;-81
2021/07/01 03:28:53;;;;;;;;;;;;;;;;;;5110510;28;19970;-81
2021/07/01 03:31:18;;;;;;;;;;;;;;;;;;5119529;27;20349;-81
2021/07/01 03:33:44;;;;;;;;;;;;;;;;;;5111595;27;19911;-81
2021/07/01 03:36:10;;;;;;;;;;;;;;;;;;5111175;28;19960;-81
2021/07/01 03:38:36;;;;;;;;;;;;;;;;;;5110197;28;19904;-82
2021/07/01 03:41:02;;;;;;;;;;;;;;;;;;5111333;28;20274;-81
2021/07/01 03:43:28;;;;;;;;;;;;;;;;;;5110282;28;19915;-80
2021/07/01 03:45:54;;;;;;;;;;;;;;;;;;5110767;28;19912;-80
2021/07/01 03:48:22;;;;;;;;;;;;;;;;;;5111078;28;19964;-81
2021/07/01 03:50:47;;;;;;;;;;;;;;;;;;5110540;28;20001;-81
2021/07/01 03:53:14;;;;;;;;;;;;;;;;;;5111118;28;19998;-78
2021/07/01 03:55:39;;;;;;;;;;;;;;;;;;5110979;28;20022;-80
2021/07/01 03:58:06;;;;;;;;;;;;;;;;;;5110895;28;20010;-79
2021/07/01 04:00:32;;;;;;;;;;;;;;;;;;5111443;28;20002;-80
2021/07/01 04:02:59;;;;;;;;;;;;;;;;;;5123715;28;20262;-80
2021/07/01 04:05:24;;;;;;;;;;;;;;;;;;5120262;28;19935;-80
2021/07/01 04:07:50;;;;;;;;;;;;;;;;;;5110468;28;20066;-80
2021/07/01 04:10:18;;;;;;;;;;;;;;;;;;5110444;28;20353;-80
2021/07/01 04:12:44;;;;;;;;;;;;;;;;;;5110420;28;19908;-79
2021/07/01 04:15:10;;;;;;;;;;;;;;;;;;5111155;28;19933;-79
2021/07/01 04:17:36;;;;;;;;;;;;;;;;;;5110451;28;19972;-79
2021/07/01 04:20:01;;;;;;;;;;;;;;;;;;5111273;28;19950;-79
2021/07/01 04:22:27;;;;;;;;;;;;;;;;;;5091133;28;19907;-79
2021/07/01 04:24:53;;;;;;;;;;;;;;;;;;5110766;28;19968;-80
2021/07/01 04:27:19;;;;;;;;;;;;;;;;;;5109550;28;20297;-79
2021/07/01 04:29:45;;;;;;;;;;;;;;;;;;5110439;28;20517;-80
2021/07/01 04:32:11;;;;;;;;;;;;;;;;;;5109380;28;20772;-79
2021/07/01 04:34:37;;;;;;;;;;;;;;;;;;5110882;28;20362;-80
2021/07/01 04:37:03;;;;;;;;;;;;;;;;;;5111026;28;19911;-81
2021/07/01 04:39:29;;;;;;;;;;;;;;;;;;5109949;28;19941;-80
2021/07/01 04:41:54;;;;;;;;;;;;;;;;;;5109446;28;19908;-80
2021/07/01 04:44:20;;;;;;;;;;;;;;;;;;5110672;28;19954;-80
2021/07/01 04:46:46;;;;;;;;;;;;;;;;;;5113800;28;19908;-80
2021/07/01 04:49:12;;;;;;;;;;;;;;;;;;5112276;27;19908;-80
2021/07/01 04:51:38;;;;;;;;;;;;;;;;;;5113793;28;19904;-81
2021/07/01 04:54:04;;;;;;;;;;;;;;;;;;5113503;28;19911;-82
2021/07/01 04:56:43;;;;;;;;;;;;;;;;;;5120529;27;19915;-80
2021/07/01 04:59:09;;;;;;;;;;;;;;;;;;5134955;27;19946;-80
2021/07/01 05:01:35;;;;;;;;;;;;;;;;;;5134431;27;20369;-80
2021/07/01 05:04:01;;;;;;;;;;;;;;;;;;5134116;27;19918;-80
2021/07/01 05:06:26;;;;;;;;;;;;;;;;;;5127505;27;19942;-79
2021/07/01 05:08:52;;;;;;;;;;;;;;;;;;5114227;28;19918;-80
2021/07/01 05:11:18;;;;;;;;;;;;;;;;;;5113586;28;19900;-79
2021/07/01 05:13:44;;;;;;;;;;;;;;;;;;5113222;28;19954;-79
2021/07/01 05:16:10;;;;;;;;;;;;;;;;;;5113658;28;19915;-81
2021/07/01 05:18:36;;;;;;;;;;;;;;;;;;5113058;28;19908;-81
2021/07/01 05:21:02;;;;;;;;;;;;;;;;;;5113603;28;20030;-82
2021/07/01 05:23:28;;;;;;;;;;;;;;;;;;5112553;28;19977;-82
2021/07/01 05:25:53;;;;;;;;;;;;;;;;;;5113109;28;20307;-82
2021/07/01 05:28:19;;;;;;;;;;;;;;;;;;5114020;28;19908;-81
2021/07/01 05:30:46;;;;;;;;;;;;;;;;;;5113505;28;20048;-81
2021/07/01 05:33:12;;;;;;;;;;;;;;;;;;5112881;28;19907;-81
2021/07/01 05:35:38;;;;;;;;;;;;;;;;;;5094554;28;19994;-81
2021/07/01 05:38:04;;;;;;;;;;;;;;;;;;5113720;28;20371;-82
2021/07/01 05:40:30;;;;;;;;;;;;;;;;;;5113417;28;19998;-81
2021/07/01 05:42:56;;;;;;;;;;;;;;;;;;5112940;28;19998;-81
2021/07/01 05:45:22;;;;;;;;;;;;;;;;;;5113926;28;20388;-81
2021/07/01 05:47:48;;;;;;;;;;;;;;;;;;5115014;27;19910;-83
2021/07/01 05:50:14;;;;;;;;;;;;;;;;;;5123571;27;19916;-82
2021/07/01 05:52:42;;;;;;;;;;;;;;;;;;5111201;28;19907;-82
2021/07/01 05:55:08;;;;;;;;;;;;;;;;;;5113074;28;20270;-82
2021/07/01 05:57:34;;;;;;;;;;;;;;;;;;5111566;28;19904;-82
2021/07/01 06:00:00;;;;;;;;;;;;;;;;;;5109564;28;19911;-82
2021/07/01 06:02:26;;;;;;;;;;;;;;;;;;5112355;28;19927;-81
2021/07/01 06:04:52;;;;;;;;;;;;;;;;;;5111338;28;19926;-80
2021/07/01 06:07:18;;;;;;;;;;;;;;;;;;5112058;28;19914;-80
2021/07/01 06:09:45;;;;;;;;;;;;;;;;;;5115040;28;20411;-81
2021/07/01 06:12:11;;;;;;;;;;;;;;;;;;5113575;28;19915;-81
2021/07/01 06:14:37;;;;;;;;;;;;;;;;;;5114992;28;19904;-80
2021/07/01 06:17:04;;;;;;;;;;;;;;;;;;5115988;28;19926;-82
2021/07/01 06:19:30;;;;;;;;;;;;;;;;;;5107677;28;19911;-83
2021/07/01 06:21:56;;;;;;;;;;;;;;;;;;5115064;28;19914;-84
2021/07/01 06:24:22;;;;;;;;;;;;;;;;;;5115108;28;19937;-85
2021/07/01 06:26:49;;;;;;;;;;;;;;;;;;5118152;28;19911;-81
2021/07/01 06:29:15;;;;;;;;;;;;;;;;;;5095682;28;19966;-80
2021/07/01 06:31:41;;;;;;;;;;;;;;;;;;5113244;28;19950;-82
2021/07/01 06:34:07;;;;;;;;;;;;;;;;;;5113953;28;20341;-81
2021/07/01 06:36:33;;;;;;;;;;;;;;;;;;5117046;28;20259;-81
2021/07/01 06:38:59;;;;;;;;;;;;;;;;;;5114437;28;19911;-82
2021/07/01 06:41:26;;;;;;;;;;;;;;;;;;5115347;28;19967;-81
2021/07/01 06:43:53;;;;;;;;;;;;;;;;;;5114031;28;19943;-81
2021/07/01 06:46:19;;;;;;;;;;;;;;;;;;5114641;28;19908;-80
2021/07/01 06:48:45;;;;;;;;;;;;;;;;;;5118868;27;19908;-82
2021/07/01 06:51:12;;;;;;;;;;;;;;;;;;5096094;28;20418;-82
2021/07/01 06:53:38;;;;;;;;;;;;;;;;;;5113260;28;19903;-80
2021/07/01 06:56:04;;;;;;;;;;;;;;;;;;5111734;28;19911;-81
2021/07/01 06:58:30;;;;;;;;;;;;;;;;;;5112845;28;20271;-83
2021/07/01 07:00:56;;;;;;;;;;;;;;;;;;5091310;28;19904;-83
2021/07/01 07:03:22;;;;;;;;;;;;;;;;;;5091766;28;20343;-84
2021/07/01 07:05:48;;;;;;;;;;;;;;;;;;5092209;28;19911;-82
2021/07/01 07:08:14;;;;;;;;;;;;;;;;;;5096846;28;19964;-84
2021/07/01 07:10:42;;;;;;;;;;;;;;;;;;5114289;28;19914;-83
2021/07/01 07:13:08;;;;;;;;;;;;;;;;;;5109884;28;19930;-82
2021/07/01 07:15:34;;;;;;;;;;;;;;;;;;5111109;28;20352;-82
2021/07/01 07:18:00;;;;;;;;;;;;;;;;;;5111831;28;19954;-82
2021/07/01 07:20:26;;;;;;;;;;;;;;;;;;5117116;27;19908;-84
2021/07/01 07:22:52;;;;;;;;;;;;;;;;;;5111843;28;19914;-86
2021/07/01 07:25:18;;;;;;;;;;;;;;;;;;5107842;28;20403;-84
2021/07/01 07:27:43;;;;;;;;;;;;;;;;;;5111701;27;19915;-87
2021/07/01 07:30:09;;;;;;;;;;;;;;;;;;5110210;28;19915;-85
2021/07/01 07:32:35;;;;;;;;;;;;;;;;;;5092730;28;19911;-87
2021/07/01 07:35:01;;;;;;;;;;;;;;;;;;5113741;28;19972;-85
2021/07/01 07:37:27;;;;;;;;;;;;;;;;;;5109596;28;19955;-85
2021/07/01 07:39:53;;;;;;;;;;;;;;;;;;5117319;27;20532;-85
2021/07/01 07:42:19;;;;;;;;;;;;;;;;;;5129953;27;19973;-84
2021/07/01 07:44:45;;;;;;;;;;;;;;;;;;5130048;27;20345;-84
2021/07/01 07:47:11;;;;;;;;;;;;;;;;;;5111270;28;19955;-86
2021/07/01 07:49:36;;;;;;;;;;;;;;;;;;5111830;28;20281;-85
2021/07/01 07:52:05;;;;;;;;;;;;;;;;;;5111016;28;20290;-84
2021/07/01 07:54:31;;;;;;;;;;;;;;;;;;5110517;28;19949;-84
2021/07/01 07:56:57;;;;;;;;;;;;;;;;;;5111419;28;19904;-84
2021/07/01 07:59:23;;;;;;;;;;;;;;;;;;5111139;28;20290;-85
2021/07/01 08:01:49;;;;;;;;;;;;;;;;;;5111873;28;19908;-83
2021/07/01 08:04:16;;;;;;;;;;;;;;;;;;5110176;28;19955;-85
2021/07/01 08:06:43;;;;;;;;;;;;;;;;;;5111281;28;19904;-84
2021/07/01 08:09:09;;;;;;;;;;;;;;;;;;5114413;28;19912;-84
2021/07/01 08:11:35;;;;;;;;;;;;;;;;;;5117947;28;20379;-86
2021/07/01 08:14:01;;;;;;;;;;;;;;;;;;5112075;28;19904;-84
2021/07/01 08:16:27;;;;;;;;;;;;;;;;;;5111189;28;19904;-84
2021/07/01 08:18:53;;;;;;;;;;;;;;;;;;5111156;28;20243;-87
2021/07/01 08:21:19;;;;;;;;;;;;;;;;;;5113826;28;19903;-84
2021/07/01 08:23:44;;;;;;;;;;;;;;;;;;5115865;28;19911;-84
2021/07/01 08:26:10;;;;;;;;;;;;;;;;;;5119497;27;19914;-84
2021/07/01 08:28:36;;;;;;;;;;;;;;;;;;5137506;27;19904;-85
2021/07/01 08:31:02;;;;;;;;;;;;;;;;;;5121002;27;19908;-85
2021/07/01 08:33:28;;;;;;;;;;;;;;;;;;5114416;28;19915;-84
2021/07/01 08:35:54;;;;;;;;;;;;;;;;;;5116047;28;19998;-88
2021/07/01 08:38:20;;;;;;;;;;;;;;;;;;5116158;28;20350;-94
2021/07/01 08:40:47;;;;;;;;;;;;;;;;;;5120762;28;19908;-89
2021/07/01 08:43:13;;;;;;;;;;;;;;;;;;5116073;28;19980;-90
2021/07/01 08:45:39;;;;;;;;;;;;;;;;;;5117518;28;19912;-88
2021/07/01 08:48:05;;;;;;;;;;;;;;;;;;5110198;28;20466;-83
2021/07/01 08:50:31;;;;;;;;;;;;;;;;;;5094737;28;19904;-85
2021/07/01 08:52:56;;;;;;;;;;;;;;;;;;5094496;28;19904;-86
2021/07/01 08:55:22;;;;;;;;;;;;;;;;;;5094716;28;19916;-86
2021/07/01 08:57:53;;;;;;;;;;;;;;;;;;5090117;28;19914;-94
2021/07/01 09:00:19;;;;;;;;;;;;;;;;;;5124468;28;19924;-93
2021/07/01 09:02:48;;;;;;;;;;;;;;;;;;5104622;28;19956;-94
2021/07/01 09:05:15;;;;;;;;;;;;;;;;;;5134892;28;19915;-95
2021/07/01 09:07:41;;;;;;;;;;;;;;;;;;5122188;28;20380;-85
2021/07/01 09:10:07;;;;;;;;;;;;;;;;;;5091762;28;19908;-87
2021/07/01 09:12:33;;;;;;;;;;;;;;;;;;5089051;28;19941;-86
2021/07/01 09:14:59;;;;;;;;;;;;;;;;;;5113465;27;19907;-84
2021/07/01 09:17:25;;;;;;;;;;;;;;;;;;5106508;28;19908;-86
2021/07/01 09:19:51;;;;;;;;;;;;;;;;;;5100175;27;20358;-85
2021/07/01 09:22:16;;;;;;;;;;;;;;;;;;5094565;28;19903;-86
2021/07/01 09:24:42;;;;;;;;;;;;;;;;;;5112244;28;20001;-87
2021/07/01 09:27:09;;;;;;;;;;;;;;;;;;5107304;28;19912;-91
2021/07/01 09:29:35;;;;;;;;;;;;;;;;;;5115373;27;19960;-90
2021/07/01 09:32:07;;;;;;;;;;;;;;;;;;5099300;27;19912;-90
2021/07/01 09:34:33;;;;;;;;;;;;;;;;;;5101906;27;19908;-81
2021/07/01 09:36:59;;;;;;;;;;;;;;;;;;5098215;27;20294;-80
2021/07/01 09:39:25;;;;;;;;;;;;;;;;;;5105463;27;20062;-81
2021/07/01 09:41:57;;;;;;;;;;;;;;;;;;5110960;28;19945;-80
2021/07/01 09:44:23;;;;;;;;;;;;;;;;;;5113627;28;19911;-82
2021/07/01 09:46:49;;;;;;;;;;;;;;;;;;5101058;28;19908;-79
2021/07/01 09:49:15;;;;;;;;;;;;;;;;;;5113346;28;19930;-79
2021/07/01 09:51:42;;;;;;;;;;;;;;;;;;5084205;27;19942;-79
2021/07/01 09:54:08;;;;;;;;;;;;;;;;;;5101390;27;19912;-78
2021/07/01 09:56:37;;;;;;;;;;;;;;;;;;5098964;27;20319;-80
2021/07/01 09:59:03;;;;;;;;;;;;;;;;;;5102903;28;19961;-80
2021/07/01 10:01:29;;;;;;;;;;;;;;;;;;5098732;27;20301;-79
2021/07/01 10:03:55;;;;;;;;;;;;;;;;;;5098866;28;20011;-79
2021/07/01 10:06:21;;;;;;;;;;;;;;;;;;5100445;27;19987;-77
2021/07/01 10:08:47;;;;;;;;;;;;;;;;;;5099810;27;20345;-77
2021/07/01 10:11:13;;;;;;;;;;;;;;;;;;5098173;27;20022;-79
2021/07/01 10:13:39;;;;;;;;;;;;;;;;;;5099187;27;19930;-79
2021/07/01 10:16:05;;;;;;;;;;;;;;;;;;5101033;27;19915;-79
2021/07/01 10:18:31;;;;;;;;;;;;;;;;;;5106768;28;20746;-80
2021/07/01 10:20:57;;;;;;;;;;;;;;;;;;5111634;28;19914;-80
2021/07/01 10:23:23;;;;;;;;;;;;;;;;;;5111120;28;19911;-78
2021/07/01 10:25:50;;;;;;;;;;;;;;;;;;5109888;27;19916;-80
2021/07/01 10:28:16;;;;;;;;;;;;;;;;;;5111262;28;19911;-80
2021/07/01 10:30:42;;;;;;;;;;;;;;;;;;5112430;28;20281;-80
2021/07/01 10:33:08;;;;;;;;;;;;;;;;;;5120623;27;19907;-79
2021/07/01 10:35:35;;;;;;;;;;;;;;;;;;5114517;27;19908;-79
2021/07/01 10:38:01;;;;;;;;;;;;;;;;;;5108942;28;20366;-78
2021/07/01 10:40:27;;;;;;;;;;;;;;;;;;5110645;28;19907;-78
2021/07/01 10:42:55;;;;;;;;;;;;;;;;;;5107457;28;19911;-80
2021/07/01 10:45:21;;;;;;;;;;;;;;;;;;5109161;28;19916;-80
2021/07/01 10:47:47;;;;;;;;;;;;;;;;;;5110276;28;19915;-84
2021/07/01 10:50:13;;;;;;;;;;;;;;;;;;5111656;28;20048;-84
2021/07/01 10:52:41;;;;;;;;;;;;;;;;;;5112211;28;19916;-85
2021/07/01 10:55:07;;;;;;;;;;;;;;;;;;5107677;27;20143;-83
2021/07/01 10:57:33;;;;;;;;;;;;;;;;;;5105065;27;21397;-83
2021/07/01 10:59:58;;;;;;;;;;;;;;;;;;5102370;28;19918;-84
2021/07/01 11:02:24;;;;;;;;;;;;;;;;;;5099856;27;20262;-82
2021/07/01 11:04:50;;;;;;;;;;;;;;;;;;5103251;27;20004;-82
2021/07/01 11:07:16;;;;;;;;;;;;;;;;;;5100404;28;19907;-83
2021/07/01 11:09:42;;;;;;;;;;;;;;;;;;5101631;27;19908;-82
2021/07/01 11:12:08;;;;;;;;;;;;;;;;;;5104394;27;19914;-82
2021/07/01 11:14:34;;;;;;;;;;;;;;;;;;5101499;27;19988;-83
2021/07/01 11:17:00;;;;;;;;;;;;;;;;;;5102100;27;19916;-82
2021/07/01 11:19:26;;;;;;;;;;;;;;;;;;5100729;28;19915;-80
2021/07/01 11:21:52;;;;;;;;;;;;;;;;;;5100590;27;20336;-81
2021/07/01 11:24:18;;;;;;;;;;;;;;;;;;5103505;27;20342;-83
2021/07/01 11:26:43;;;;;;;;;;;;;;;;;;5101797;27;19919;-83
2021/07/01 11:29:09;;;;;;;;;;;;;;;;;;5102218;28;19985;-82
2021/07/01 11:31:35;;;;;;;;;;;;;;;;;;5100110;27;19912;-82
2021/07/01 11:34:01;;;;;;;;;;;;;;;;;;5102705;28;20006;-81
2021/07/01 11:36:27;;;;;;;;;;;;;;;;;;5102842;27;19943;-81
2021/07/01 11:38:53;;;;;;;;;;;;;;;;;;5101100;28;20003;-81
2021/07/01 11:41:19;;;;;;;;;;;;;;;;;;5099245;28;20326;-81
2021/07/01 11:43:46;;;;;;;;;;;;;;;;;;5101197;28;19945;-82
2021/07/01 11:46:12;;;;;;;;;;;;;;;;;;5102576;28;20006;-82
2021/07/01 11:48:38;;;;;;;;;;;;;;;;;;5102845;28;20060;-81
2021/07/01 11:51:04;;;;;;;;;;;;;;;;;;5101939;28;20385;-85
2021/07/01 11:53:30;;;;;;;;;;;;;;;;;;5103743;28;19908;-85
2021/07/01 11:55:59;;;;;;;;;;;;;;;;;;5088595;28;19981;-88
2021/07/01 11:58:25;;;;;;;;;;;;;;;;;;5104843;28;20006;-84
2021/07/01 12:00:51;;;;;;;;;;;;;;;;;;5102651;28;19930;-86
2021/07/01 12:03:17;;;;;;;;;;;;;;;;;;5099663;28;19951;-84
2021/07/01 12:05:43;;;;;;;;;;;;;;;;;;5102699;28;20293;-83
2021/07/01 12:08:09;;;;;;;;;;;;;;;;;;5102337;28;19907;-84
2021/07/01 12:10:35;;;;;;;;;;;;;;;;;;5099131;28;19907;-84
2021/07/01 12:13:01;;;;;;;;;;;;;;;;;;5089148;28;20320;-85
2021/07/01 12:15:27;;;;;;;;;;;;;;;;;;5109155;28;20364;-84
2021/07/01 12:17:54;;;;;;;;;;;;;;;;;;5092927;28;19908;-84
2021/07/01 12:20:20;;;;;;;;;;;;;;;;;;5111403;28;19904;-84
2021/07/01 12:22:46;;;;;;;;;;;;;;;;;;5110162;28;20419;-85
2021/07/01 12:25:12;;;;;;;;;;;;;;;;;;5110288;28;19930;-83
2021/07/01 12:27:38;;;;;;;;;;;;;;;;;;5111569;28;19904;-84
2021/07/01 12:30:04;;;;;;;;;;;;;;;;;;5111444;28;19911;-84
2021/07/01 12:32:30;;;;;;;;;;;;;;;;;;5110353;28;19910;-85
2021/07/01 12:34:55;;;;;;;;;;;;;;;;;;5093482;28;19966;-85
2021/07/01 12:37:21;;;;;;;;;;;;;;;;;;5123734;28;19915;-84
2021/07/01 12:39:47;;;;;;;;;;;;;;;;;;5112421;28;20564;-83
2021/07/01 12:42:14;;;;;;;;;;;;;;;;;;5109635;28;20495;-84
2021/07/01 12:44:41;;;;;;;;;;;;;;;;;;5092301;28;19919;-85
2021/07/01 12:47:07;;;;;;;;;;;;;;;;;;5111346;28;19916;-86
2021/07/01 12:49:37;;;;;;;;;;;;;;;;;;5092769;28;20285;-84
2021/07/01 12:52:04;;;;;;;;;;;;;;;;;;5110805;28;19918;-85
2021/07/01 12:54:30;;;;;;;;;;;;;;;;;;5109856;28;19992;-84
2021/07/01 12:57:00;;;;;;;;;;;;;;;;;;5110960;28;19985;-86
2021/07/01 12:59:25;;;;;;;;;;;;;;;;;;5110983;28;19904;-85
2021/07/01 13:01:51;;;;;;;;;;;;;;;;;;5111579;28;19907;-85
2021/07/01 13:04:17;;;;;;;;;;;;;;;;;;5110362;28;19919;-85
2021/07/01 13:06:43;;;;;;;;;;;;;;;;;;5111213;28;19947;-83
2021/07/01 13:09:09;;;;;;;;;;;;;;;;;;5109483;27;19931;-85
2021/07/01 13:11:35;;;;;;;;;;;;;;;;;;5109545;28;19907;-83
2021/07/01 13:14:01;;;;;;;;;;;;;;;;;;5093336;28;19912;-84
2021/07/01 13:16:27;;;;;;;;;;;;;;;;;;5111543;28;20010;-82
2021/07/01 13:18:52;;;;;;;;;;;;;;;;;;5112981;28;19912;-81
2021/07/01 13:21:18;;;;;;;;;;;;;;;;;;5113100;28;19904;-80
2021/07/01 13:23:44;;;;;;;;;;;;;;;;;;5113178;27;19908;-82
2021/07/01 13:26:10;;;;;;;;;;;;;;;;;;5112155;27;20437;-79
2021/07/01 13:28:36;;;;;;;;;;;;;;;;;;5094210;28;19912;-80
2021/07/01 13:31:02;;;;;;;;;;;;;;;;;;5113552;28;19915;-79
2021/07/01 13:33:28;;;;;;;;;;;;;;;;;;5112981;28;19904;-80
2021/07/01 13:35:54;;;;;;;;;;;;;;;;;;5112141;28;19911;-79
2021/07/01 13:38:23;;;;;;;;;;;;;;;;;;5094836;28;19914;-80
2021/07/01 13:40:49;;;;;;;;;;;;;;;;;;5095151;28;19987;-80
2021/07/01 13:43:18;;;;;;;;;;;;;;;;;;5126894;27;19951;-79
2021/07/01 13:45:44;;;;;;;;;;;;;;;;;;5133269;27;20299;-80
2021/07/01 13:48:10;;;;;;;;;;;;;;;;;;5133612;27;19903;-81
2021/07/01 13:50:35;;;;;;;;;;;;;;;;;;5116106;27;20440;-82
2021/07/01 13:53:01;;;;;;;;;;;;;;;;;;5092953;28;19915;-81
2021/07/01 13:55:27;;;;;;;;;;;;;;;;;;5104089;27;20542;-80
2021/07/01 13:57:53;;;;;;;;;;;;;;;;;;5104450;28;19960;-82
2021/07/01 14:00:20;;;;;;;;;;;;;;;;;;5113982;27;19907;-82
2021/07/01 14:02:46;;;;;;;;;;;;;;;;;;5109705;28;19904;-82
2021/07/01 14:05:11;;;;;;;;;;;;;;;;;;5111982;28;20012;-80
2021/07/01 14:07:37;;;;;;;;;;;;;;;;;;5093858;28;19913;-81
2021/07/01 14:10:03;;;;;;;;;;;;;;;;;;5112644;27;20334;-82
2021/07/01 14:12:29;;;;;;;;;;;;;;;;;;5111626;28;20349;-82
2021/07/01 14:14:55;;;;;;;;;;;;;;;;;;5107447;28;19907;-81
2021/07/01 14:17:21;;;;;;;;;;;;;;;;;;5111611;28;19947;-81
2021/07/01 14:19:50;;;;;;;;;;;;;;;;;;5092797;28;19903;-81
2021/07/01 14:22:16;;;;;;;;;;;;;;;;;;5110861;28;19914;-82
2021/07/01 14:24:42;;;;;;;;;;;;;;;;;;5111473;28;20311;-81
2021/07/01 14:27:09;;;;;;;;;;;;;;;;;;5118208;27;19919;-81
2021/07/01 14:29:35;;;;;;;;;;;;;;;;;;5109553;28;19925;-83
2021/07/01 14:32:01;;;;;;;;;;;;;;;;;;5111911;28;19904;-82
2021/07/01 14:34:27;;;;;;;;;;;;;;;;;;5111925;28;19904;-82
2021/07/01 14:36:55;;;;;;;;;;;;;;;;;;5111522;28;19911;-82
2021/07/01 14:39:21;;;;;;;;;;;;;;;;;;5111299;28;20364;-81
2021/07/01 14:41:47;;;;;;;;;;;;;;;;;;5112743;28;20002;-82
2021/07/01 14:44:13;;;;;;;;;;;;;;;;;;5093990;28;19907;-80
2021/07/01 14:46:40;;;;;;;;;;;;;;;;;;5112542;28;19910;-83
2021/07/01 14:49:06;;;;;;;;;;;;;;;;;;5111972;28;19932;-80
2021/07/01 14:51:33;;;;;;;;;;;;;;;;;;5105908;28;19914;-80
2021/07/01 14:53:58;;;;;;;;;;;;;;;;;;5093631;28;19904;-82
2021/07/01 14:56:24;;;;;;;;;;;;;;;;;;5111665;28;19904;-82
2021/07/01 14:58:50;;;;;;;;;;;;;;;;;;5110393;28;19951;-82
2021/07/01 15:01:16;;;;;;;;;;;;;;;;;;5110626;28;19915;-82
2021/07/01 15:03:42;;;;;;;;;;;;;;;;;;5110712;28;20297;-80
2021/07/01 15:06:08;;;;;;;;;;;;;;;;;;5091572;28;20350;-83
2021/07/01 15:08:34;;;;;;;;;;;;;;;;;;5105185;27;19908;-80
2021/07/01 15:11:00;;;;;;;;;;;;;;;;;;5106463;28;19926;-81
2021/07/01 15:13:27;;;;;;;;;;;;;;;;;;5106362;27;19912;-78
2021/07/01 15:15:53;;;;;;;;;;;;;;;;;;5108863;28;19910;-80
2021/07/01 15:18:19;;;;;;;;;;;;;;;;;;5110420;28;19903;-79
2021/07/01 15:20:45;;;;;;;;;;;;;;;;;;5109642;28;19915;-80
2021/07/01 15:23:12;;;;;;;;;;;;;;;;;;5091634;28;20006;-78
2021/07/01 15:25:38;;;;;;;;;;;;;;;;;;5110242;28;20441;-80
2021/07/01 15:28:03;;;;;;;;;;;;;;;;;;5110528;28;19955;-80
2021/07/01 15:30:29;;;;;;;;;;;;;;;;;;5109813;28;19904;-79
2021/07/01 15:32:55;;;;;;;;;;;;;;;;;;5106091;28;20273;-81
2021/07/01 15:35:21;;;;;;;;;;;;;;;;;;5092235;28;19908;-78
2021/07/01 15:37:47;;;;;;;;;;;;;;;;;;5110163;28;19907;-80
2021/07/01 15:40:13;;;;;;;;;;;;;;;;;;5110825;28;19907;-79
2021/07/01 15:42:40;;;;;;;;;;;;;;;;;;5111585;28;19960;-81
2021/07/01 15:45:06;;;;;;;;;;;;;;;;;;5105088;28;19919;-81
2021/07/01 15:47:32;;;;;;;;;;;;;;;;;;5110580;28;19930;-80
2021/07/01 15:49:58;;;;;;;;;;;;;;;;;;5109731;28;19915;-80
2021/07/01 15:52:24;;;;;;;;;;;;;;;;;;5107664;28;19908;-81
2021/07/01 15:54:50;;;;;;;;;;;;;;;;;;5109363;28;19922;-80
2021/07/01 15:57:15;;;;;;;;;;;;;;;;;;5110193;28;19903;-81
2021/07/01 15:59:41;;;;;;;;;;;;;;;;;;5104830;28;19912;-82
2021/07/01 16:02:07;;;;;;;;;;;;;;;;;;5091579;28;19907;-84
2021/07/01 16:04:33;;;;;;;;;;;;;;;;;;5098184;28;20273;-81
2021/07/01 16:06:59;;;;;;;;;;;;;;;;;;5110302;28;19973;-83
2021/07/01 16:09:25;;;;;;;;;;;;;;;;;;5109560;28;19915;-80
2021/07/01 16:11:51;;;;;;;;;;;;;;;;;;5092718;28;20250;-82
2021/07/01 16:14:17;;;;;;;;;;;;;;;;;;5093130;28;19934;-81
2021/07/01 16:16:43;;;;;;;;;;;;;;;;;;5111860;28;19911;-82
2021/07/01 16:19:08;;;;;;;;;;;;;;;;;;5112947;28;20349;-83
2021/07/01 16:21:35;;;;;;;;;;;;;;;;;;5110901;28;19904;-81
2021/07/01 16:24:00;;;;;;;;;;;;;;;;;;5111696;28;19903;-83
2021/07/01 16:26:27;;;;;;;;;;;;;;;;;;5111048;28;19968;-81
2021/07/01 16:28:53;;;;;;;;;;;;;;;;;;5111340;28;19903;-81
2021/07/01 16:31:19;;;;;;;;;;;;;;;;;;5111448;28;19918;-82
2021/07/01 16:33:45;;;;;;;;;;;;;;;;;;5110404;28;20036;-83
2021/07/01 16:36:10;;;;;;;;;;;;;;;;;;5112311;28;19956;-80
2021/07/01 16:38:36;;;;;;;;;;;;;;;;;;5110306;28;19915;-81
2021/07/01 16:41:02;;;;;;;;;;;;;;;;;;5111915;28;20353;-81